Time;durP1;ratioP1;P1;durP2;ratioP2;P2;SDS_P1;SDS_P2;PMS_P1;PMS_P2;Temp;Humidity;BMP_temperature;BMP_pressure;BME280_temperature;BME280_humidity;BME280_pressure;Samples;Min_cycle;Max_cycle;Signal;HPM_P1;HPM_P2
2022/04/01 00:00:56;;;;;;;17.73;12.55;;;;;;;-0.26;100.00;100085.56;5248362;28;20119;-67
2022/04/01 00:03:28;;;;;;;19.83;13.20;;;;;;;-0.24;100.00;100093.38;5250095;28;20511;-67
2022/04/01 00:05:59;;;;;;;17.15;12.32;;;;;;;-0.23;100.00;100097.69;5252333;28;20102;-67
2022/04/01 00:08:30;;;;;;;16.55;12.27;;;;;;;-0.26;100.00;100098.69;5248670;28;20021;-67
2022/04/01 00:11:01;;;;;;;19.02;12.25;;;;;;;-0.28;100.00;100095.28;5244568;28;20449;-67
2022/04/01 00:13:33;;;;;;;15.25;11.43;;;;;;;-0.30;100.00;100099.75;5247942;28;20364;-67
2022/04/01 00:16:04;;;;;;;15.05;11.18;;;;;;;-0.30;100.00;100096.28;5244893;28;20102;-67
2022/04/01 00:18:35;;;;;;;17.23;11.00;;;;;;;-0.32;100.00;100108.59;5246573;28;20056;-67
2022/04/01 00:21:07;;;;;;;17.92;11.55;;;;;;;-0.34;100.00;100102.56;5246871;28;20585;-67
2022/04/01 00:23:38;;;;;;;14.80;10.40;;;;;;;-0.38;100.00;100106.22;5247960;28;20159;-67
2022/04/01 00:26:09;;;;;;;15.38;11.55;;;;;;;-0.42;100.00;100109.00;5245294;28;20041;-67
2022/04/01 00:28:41;;;;;;;13.85;10.18;;;;;;;-0.45;100.00;100105.66;5245913;28;20036;-66
2022/04/01 00:31:13;;;;;;;14.80;10.38;;;;;;;-0.47;100.00;100113.56;5237714;28;20060;-66
2022/04/01 00:33:44;;;;;;;14.55;9.35;;;;;;;-0.54;100.00;100114.72;5245239;28;20028;-66
2022/04/01 00:36:16;;;;;;;13.65;9.80;;;;;;;-0.53;100.00;100118.22;5246243;28;20037;-66
2022/04/01 00:38:47;;;;;;;14.48;10.68;;;;;;;-0.58;100.00;100113.16;5245922;28;20029;-66
2022/04/01 00:41:19;;;;;;;15.70;10.15;;;;;;;-0.62;100.00;100112.44;5243573;28;20029;-66
2022/04/01 00:44:12;;;;;;;15.45;10.18;;;;;;;-0.64;100.00;100122.13;5245938;28;20112;-66
2022/04/01 00:46:45;;;;;;;15.05;10.02;;;;;;;-0.66;100.00;100126.59;5242917;28;20021;-66
2022/04/01 00:49:18;;;;;;;14.63;10.15;;;;;;;-0.67;100.00;100119.66;5247426;28;20033;-66
2022/04/01 00:51:51;;;;;;;14.27;10.20;;;;;;;-0.67;100.00;100131.88;5241604;28;20052;-66
2022/04/01 00:54:23;;;;;;;15.18;10.35;;;;;;;-0.69;100.00;100124.13;5248779;28;20055;-66
2022/04/01 00:56:55;;;;;;;14.68;9.55;;;;;;;-0.71;100.00;100131.19;5244365;28;20029;-66
2022/04/01 00:59:26;;;;;;;13.55;10.02;;;;;;;-0.69;100.00;100139.84;5244637;28;20387;-66
2022/04/01 01:01:59;;;;;;;14.63;10.18;;;;;;;-0.71;100.00;100132.94;5247031;28;20367;-66
2022/04/01 01:04:31;;;;;;;15.63;10.38;;;;;;;-0.72;100.00;100142.56;5246396;28;20099;-66
2022/04/01 01:07:03;;;;;;;18.48;10.95;;;;;;;-0.68;100.00;100135.44;5255246;28;20033;-66
2022/04/01 01:09:34;;;;;;;16.25;10.73;;;;;;;-0.68;100.00;100138.06;5247910;28;20055;-66
2022/04/01 01:12:06;;;;;;;16.52;10.15;;;;;;;-0.70;100.00;100142.50;5246877;28;20106;-66
2022/04/01 01:14:40;;;;;;;15.05;10.32;;;;;;;-0.69;100.00;100134.59;5242144;28;20120;-66
2022/04/01 01:17:12;;;;;;;15.50;10.43;;;;;;;-0.70;100.00;100138.13;5245226;28;20439;-66
2022/04/01 01:19:46;;;;;;;16.10;10.48;;;;;;;-0.73;100.00;100130.41;5246954;28;20078;-66
2022/04/01 01:22:17;;;;;;;15.32;9.90;;;;;;;-0.73;100.00;100137.38;5243051;28;20033;-66
2022/04/01 01:24:49;;;;;;;15.40;10.07;;;;;;;-0.76;100.00;100138.38;5240671;28;20509;-66
2022/04/01 01:27:21;;;;;;;14.55;10.02;;;;;;;-0.73;100.00;100138.25;5251467;28;20463;-66
2022/04/01 01:29:53;;;;;;;16.33;10.02;;;;;;;-0.75;100.00;100133.97;5249897;28;20380;-66
2022/04/01 01:32:24;;;;;;;16.50;10.38;;;;;;;-0.76;100.00;100133.13;5251418;28;20036;-66
2022/04/01 01:34:56;;;;;;;13.90;9.68;;;;;;;-0.78;100.00;100134.97;5250046;28;20063;-66
2022/04/01 01:37:28;;;;;;;15.10;9.80;;;;;;;-0.77;100.00;100139.28;5249418;28;20112;-66
2022/04/01 01:39:59;;;;;;;16.10;10.45;;;;;;;-0.76;100.00;100143.63;5247944;28;20027;-66
2022/04/01 01:42:30;;;;;;;14.05;9.85;;;;;;;-0.80;100.00;100136.78;5247347;28;20061;-66
2022/04/01 01:45:03;;;;;;;15.40;10.30;;;;;;;-0.76;100.00;100141.00;5240685;28;20069;-66
2022/04/01 01:47:34;;;;;;;15.80;10.38;;;;;;;-0.77;100.00;100147.13;5244615;28;20025;-66
2022/04/01 01:55:46;;;;;;;17.13;10.70;;;;;;;-0.76;100.00;100148.84;5244961;28;20041;-66
2022/04/01 01:58:18;;;;;;;15.95;10.82;;;;;;;-0.78;100.00;100144.59;5242569;28;20475;-66
2022/04/01 02:00:49;;;;;;;15.67;10.57;;;;;;;-0.79;100.00;100148.97;5249021;28;20029;-66
2022/04/01 02:03:21;;;;;;;16.25;10.18;;;;;;;-0.80;100.00;100155.97;5252232;28;20033;-66
2022/04/01 02:05:52;;;;;;;15.27;9.70;;;;;;;-0.79;100.00;100151.59;5250030;28;20459;-66
2022/04/01 02:08:23;;;;;;;15.50;10.00;;;;;;;-0.77;100.00;100162.00;5247858;28;20021;-66
2022/04/01 02:10:55;;;;;;;16.42;11.13;;;;;;;-0.78;100.00;100162.94;5248923;28;20132;-66
2022/04/01 02:13:27;;;;;;;17.42;10.63;;;;;;;-0.77;100.00;100157.59;5247783;28;20475;-66
2022/04/01 02:15:59;;;;;;;16.15;10.45;;;;;;;-0.78;100.00;100161.16;5247373;28;20138;-66
2022/04/01 02:18:31;;;;;;;19.10;10.95;;;;;;;-0.75;100.00;100158.41;5249799;28;20029;-66
2022/04/01 02:21:10;;;;;;;15.23;10.43;;;;;;;-0.77;100.00;100167.25;5249522;28;20029;-66
2022/04/01 02:23:46;;;;;;;14.70;9.70;;;;;;;-0.76;100.00;100166.34;5247543;28;20041;-66
2022/04/01 02:26:18;;;;;;;16.70;11.07;;;;;;;-0.75;100.00;100171.50;5252527;28;20028;-66
2022/04/01 02:28:49;;;;;;;16.98;11.00;;;;;;;-0.78;100.00;100171.63;5248304;28;20029;-66
2022/04/01 02:31:20;;;;;;;15.23;10.85;;;;;;;-0.73;100.00;100177.56;5251303;28;20383;-66
2022/04/01 02:33:52;;;;;;;17.02;11.13;;;;;;;-0.76;100.00;100180.28;5248186;28;20037;-66
2022/04/01 02:36:23;;;;;;;18.95;11.40;;;;;;;-0.73;100.00;100185.41;5251967;28;20510;-66
2022/04/01 02:38:54;;;;;;;16.35;10.68;;;;;;;-0.73;100.00;100188.03;5245531;28;20032;-66
2022/04/01 02:41:26;;;;;;;16.90;10.60;;;;;;;-0.71;100.00;100183.56;5244884;28;20033;-66
2022/04/01 02:44:09;;;;;;;17.02;10.95;;;;;;;-0.71;100.00;100187.94;5249426;28;20033;-66
2022/04/01 02:46:43;;;;;;;15.32;10.77;;;;;;;-0.69;100.00;100189.59;5251459;28;20052;-66
2022/04/01 02:49:16;;;;;;;15.55;10.10;;;;;;;-0.70;100.00;100195.75;5253748;28;20040;-66
2022/04/01 02:51:48;;;;;;;15.30;11.13;;;;;;;-0.73;100.00;100206.38;5246422;28;20053;-66
2022/04/01 02:54:22;;;;;;;15.60;9.90;;;;;;;-0.76;100.00;100203.84;5246193;28;20128;-66
2022/04/01 02:56:53;;;;;;;14.77;10.50;;;;;;;-0.77;100.00;100209.16;5253267;28;20037;-66
2022/04/01 02:59:25;;;;;;;14.73;9.93;;;;;;;-0.81;100.00;100204.00;5252257;28;20047;-66
2022/04/01 03:01:57;;;;;;;15.13;10.63;;;;;;;-0.83;100.00;100208.47;5250025;28;20090;-66
2022/04/01 03:04:28;;;;;;;15.38;10.55;;;;;;;-0.82;100.00;100214.56;5249344;28;20403;-66
2022/04/01 03:06:59;;;;;;;16.02;10.93;;;;;;;-0.83;100.00;100210.25;5256172;28;20025;-66
2022/04/01 03:09:31;;;;;;;18.50;11.02;;;;;;;-0.82;100.00;100222.44;5249198;28;20051;-66
2022/04/01 03:12:02;;;;;;;15.15;10.60;;;;;;;-0.84;100.00;100217.25;5252758;28;20051;-66
2022/04/01 03:14:34;;;;;;;17.30;11.30;;;;;;;-0.84;100.00;100219.88;5247953;28;20095;-66
2022/04/01 03:17:05;;;;;;;16.33;11.73;;;;;;;-0.86;100.00;100221.69;5257218;28;20473;-66
2022/04/01 03:19:39;;;;;;;18.10;11.75;;;;;;;-0.86;100.00;100219.09;5236426;28;20473;-66
2022/04/01 03:22:10;;;;;;;19.92;12.13;;;;;;;-0.85;100.00;100222.53;5236132;28;20722;-66
2022/04/01 03:24:42;;;;;;;19.60;12.30;;;;;;;-0.84;100.00;100235.59;5244493;28;20029;-66
2022/04/01 03:27:13;;;;;;;20.17;13.27;;;;;;;-0.83;100.00;100231.19;5235584;28;20123;-66
2022/04/01 03:29:45;;;;;;;21.30;13.45;;;;;;;-0.86;100.00;100234.78;5241415;28;20125;-66
2022/04/01 03:32:16;;;;;;;20.92;13.10;;;;;;;-0.85;100.00;100233.03;5238642;28;20068;-66
2022/04/01 03:34:48;;;;;;;19.70;13.30;;;;;;;-0.85;100.00;100238.25;5240597;28;20031;-66
2022/04/01 03:37:19;;;;;;;20.73;13.93;;;;;;;-0.86;100.00;100244.44;5247210;28;20280;-66
2022/04/01 03:39:50;;;;;;;20.30;13.85;;;;;;;-0.87;100.00;100240.09;5236960;28;20151;-65
2022/04/01 03:42:21;;;;;;;20.67;12.77;;;;;;;-0.85;100.00;100240.88;5243386;28;20043;-65
2022/04/01 03:44:53;;;;;;;19.67;12.75;;;;;;;-0.85;100.00;100243.50;5235713;28;20388;-65
2022/04/01 03:47:34;;;;;;;22.23;14.00;;;;;;;-0.87;100.00;100247.94;5246053;28;20123;-65
2022/04/01 03:50:09;;;;;;;20.70;13.98;;;;;;;-0.84;100.00;100255.69;5245492;28;20740;-65
2022/04/01 03:52:45;;;;;;;21.08;14.05;;;;;;;-0.88;100.00;100262.81;5239046;28;20055;-65
2022/04/01 03:55:17;;;;;;;21.08;13.63;;;;;;;-0.90;100.00;100259.41;5238734;28;20111;-66
2022/04/01 03:57:50;;;;;;;21.30;13.25;;;;;;;-0.88;100.00;100251.47;5239376;28;20033;-65
2022/04/01 04:00:21;;;;;;;18.63;13.00;;;;;;;-0.88;100.00;100262.81;5245238;28;20314;-66
2022/04/01 04:02:53;;;;;;;20.95;13.60;;;;;;;-0.90;100.00;100271.63;5239386;28;20032;-66
2022/04/01 04:05:27;;;;;;;21.42;13.55;;;;;;;-0.89;100.00;100265.47;5249182;28;20063;-65
2022/04/01 04:08:00;;;;;;;20.40;13.02;;;;;;;-0.91;100.00;100270.78;5237095;28;20051;-65
2022/04/01 04:10:34;;;;;;;22.00;14.07;;;;;;;-0.92;100.00;100269.09;5242257;28;20143;-66
2022/04/01 04:13:06;;;;;;;20.08;13.25;;;;;;;-0.90;100.00;100282.09;5240619;28;20036;-65
2022/04/01 04:15:43;;;;;;;20.15;13.27;;;;;;;-0.91;100.00;100290.88;5243332;28;20048;-65
2022/04/01 04:18:17;;;;;;;19.33;12.80;;;;;;;-0.93;100.00;100287.47;5243669;28;20021;-66
2022/04/01 04:21:15;;;;;;;15.48;10.00;;;;;;;-0.89;100.00;100279.41;5241107;28;20021;-65
2022/04/01 04:23:50;;;;;;;23.10;13.38;;;;;;;-0.90;100.00;100296.06;5235596;28;20136;-66
2022/04/01 04:26:35;;;;;;;22.90;13.85;;;;;;;-0.90;100.00;100292.56;5246472;28;20519;-66
2022/04/01 04:29:12;;;;;;;20.77;13.15;;;;;;;-0.89;100.00;100307.38;5237954;28;20647;-66
2022/04/01 04:32:02;;;;;;;19.80;13.15;;;;;;;-0.90;100.00;100309.16;5240526;28;20033;-65
2022/04/01 04:34:38;;;;;;;19.55;13.32;;;;;;;-0.93;100.00;100308.41;5253009;28;20193;-66
2022/04/01 04:37:12;;;;;;;19.65;12.88;;;;;;;-0.90;100.00;100318.75;5254606;28;20021;-65
2022/04/01 04:39:43;;;;;;;18.45;12.70;;;;;;;-0.90;100.00;100314.38;5256535;28;20082;-65
2022/04/01 04:42:15;;;;;;;21.80;13.13;;;;;;;-0.87;100.00;100323.88;5250700;28;20033;-65
2022/04/01 04:44:49;;;;;;;19.05;12.70;;;;;;;-0.90;100.00;100324.00;5250423;28;20040;-65
2022/04/01 04:47:28;;;;;;;19.77;12.95;;;;;;;-0.91;100.00;100331.00;5254936;28;20025;-65
2022/04/01 04:50:02;;;;;;;18.92;12.93;;;;;;;-0.89;100.00;100344.03;5257268;28;20025;-65
2022/04/01 04:52:34;;;;;;;19.70;12.85;;;;;;;-0.91;100.00;100344.09;5255696;28;20524;-65
2022/04/01 04:55:11;;;;;;;18.90;13.00;;;;;;;-0.90;100.00;100350.19;5253325;28;20040;-65
2022/04/01 04:57:44;;;;;;;19.83;12.90;;;;;;;-0.88;100.00;100353.59;5255386;28;20025;-65
2022/04/01 05:00:19;;;;;;;20.05;11.98;;;;;;;-0.91;100.00;100359.81;5254898;28;20024;-65
2022/04/01 05:03:10;;;;;;;19.23;12.68;;;;;;;-0.89;100.00;100365.00;5250497;28;20033;-65
2022/04/01 05:05:56;;;;;;;19.52;12.82;;;;;;;-0.88;100.00;100367.56;5253182;28;20029;-65
2022/04/01 05:08:40;;;;;;;18.95;12.20;;;;;;;-0.91;100.00;100379.91;5253738;28;20060;-65
2022/04/01 05:11:24;;;;;;;18.25;11.25;;;;;;;-0.93;100.00;100377.34;5254423;28;20190;-65
2022/04/01 05:14:01;;;;;;;18.10;11.70;;;;;;;-0.91;100.00;100387.75;5248563;28;20032;-65
2022/04/01 05:16:58;;;;;;;18.25;11.48;;;;;;;-0.92;100.00;100394.78;5256411;28;20534;-65
2022/04/01 05:19:36;;;;;;;16.75;10.93;;;;;;;-0.90;100.00;100398.19;5250729;28;20029;-65
2022/04/01 05:22:09;;;;;;;17.95;11.68;;;;;;;-0.89;100.00;100396.41;5252554;28;20758;-65
2022/04/01 05:24:52;;;;;;;16.17;11.10;;;;;;;-0.90;100.00;100406.03;5254459;28;20056;-65
2022/04/01 05:27:26;;;;;;;17.13;11.20;;;;;;;-0.90;100.00;100403.44;5249163;28;20527;-65
2022/04/01 05:30:12;;;;;;;18.13;11.68;;;;;;;-0.90;100.00;100398.19;5251104;28;20036;-65
2022/04/01 05:32:50;;;;;;;17.67;12.18;;;;;;;-0.90;100.00;100411.28;5250717;28;20075;-65
2022/04/01 05:35:22;;;;;;;16.42;11.25;;;;;;;-0.90;100.00;100406.03;5256522;28;20028;-65
2022/04/01 05:37:54;;;;;;;17.42;11.50;;;;;;;-0.88;100.00;100417.31;5246800;28;20040;-65
2022/04/01 05:40:28;;;;;;;17.45;12.02;;;;;;;-0.91;100.00;100411.34;5251107;28;20033;-65
2022/04/01 05:43:01;;;;;;;15.50;11.02;;;;;;;-0.90;100.00;100426.13;5249559;28;20021;-65
2022/04/01 05:45:32;;;;;;;15.40;11.07;;;;;;;-0.92;100.00;100439.28;5252325;28;20028;-65
2022/04/01 05:48:08;;;;;;;17.88;11.77;;;;;;;-0.93;100.00;100432.34;5253371;28;20047;-65
2022/04/01 05:50:40;;;;;;;17.23;11.65;;;;;;;-0.91;100.00;100443.59;5250136;28;20580;-65
2022/04/01 05:53:12;;;;;;;16.42;11.48;;;;;;;-0.90;100.00;100441.84;5245777;28;20021;-65
2022/04/01 05:55:46;;;;;;;16.23;11.27;;;;;;;-0.91;100.00;100453.22;5259754;28;20028;-65
2022/04/01 05:58:17;;;;;;;16.55;10.68;;;;;;;-0.94;100.00;100451.59;5246296;28;20029;-65
2022/04/01 06:01:11;;;;;;;16.70;11.00;;;;;;;-0.90;100.00;100470.63;5244517;28;20040;-64
2022/04/01 06:04:00;;;;;;;17.05;11.77;;;;;;;-0.93;100.00;100455.91;5240447;28;20029;-65
2022/04/01 06:06:39;;;;;;;15.88;10.52;;;;;;;-0.91;100.00;100464.56;5256137;28;20113;-65
2022/04/01 06:09:36;;;;;;;14.70;10.98;;;;;;;-0.91;100.00;100474.19;5251546;28;20055;-65
2022/04/01 06:12:24;;;;;;;15.40;10.52;;;;;;;-0.93;100.00;100470.75;5246544;28;20039;-65
2022/04/01 06:15:10;;;;;;;15.65;10.20;;;;;;;-0.92;100.00;100486.44;5251305;28;20517;-65
2022/04/01 06:17:53;;;;;;;13.90;10.27;;;;;;;-0.90;100.00;100497.72;5247309;28;20166;-65
2022/04/01 06:20:27;;;;;;;14.60;10.57;;;;;;;-0.89;100.00;100494.16;5247364;28;20052;-65
2022/04/01 06:23:05;;;;;;;12.93;9.40;;;;;;;-0.87;100.00;100497.56;5251953;28;20029;-65
2022/04/01 06:25:40;;;;;;;14.25;10.15;;;;;;;-0.90;100.00;100496.81;5248073;28;20102;-65
2022/04/01 06:28:24;;;;;;;14.75;10.00;;;;;;;-0.87;100.00;100504.59;5251532;28;20366;-65
2022/04/01 06:31:03;;;;;;;12.70;9.48;;;;;;;-0.88;100.00;100508.09;5244050;28;20029;-65
2022/04/01 06:33:55;;;;;;;12.82;8.93;;;;;;;-0.91;100.00;100510.84;5238560;28;20029;-65
2022/04/01 06:36:39;;;;;;;12.20;8.63;;;;;;;-0.90;100.00;100518.66;5242419;28;20629;-65
2022/04/01 06:39:18;;;;;;;15.63;8.93;;;;;;;-0.88;100.00;100527.31;5243214;28;20032;-65
2022/04/01 06:41:56;;;;;;;16.65;9.55;;;;;;;-0.86;100.00;100529.88;5242706;28;20033;-65
2022/04/01 06:44:27;;;;;;;14.50;8.88;;;;;;;-0.90;100.00;100529.13;5242361;28;20067;-65
2022/04/01 06:46:58;;;;;;;14.20;8.98;;;;;;;-0.89;100.00;100536.06;5245276;28;20507;-65
2022/04/01 06:49:29;;;;;;;10.95;8.35;;;;;;;-0.92;100.00;100551.03;5249714;28;20048;-65
2022/04/01 06:52:02;;;;;;;13.75;8.00;;;;;;;-0.89;100.00;100553.53;5247557;28;20166;-65
2022/04/01 06:54:35;;;;;;;13.48;8.52;;;;;;;-0.91;100.00;100550.97;5250257;28;20029;-65
2022/04/01 06:57:07;;;;;;;12.70;8.02;;;;;;;-0.93;100.00;100555.41;5242285;28;20068;-65
2022/04/01 06:59:38;;;;;;;14.88;8.40;;;;;;;-0.90;100.00;100562.28;5244254;28;20554;-65
2022/04/01 07:02:09;;;;;;;10.65;7.40;;;;;;;-0.93;100.00;100570.28;5245528;28;20037;-65
2022/04/01 07:04:41;;;;;;;11.38;7.50;;;;;;;-0.92;100.00;100574.59;5245610;28;20099;-65
2022/04/01 07:07:12;;;;;;;11.57;6.97;;;;;;;-0.94;100.00;100568.53;5248406;28;20028;-65
2022/04/01 07:09:44;;;;;;;10.27;6.80;;;;;;;-0.94;100.00;100572.03;5253168;28;20028;-65
2022/04/01 07:12:16;;;;;;;11.68;7.05;;;;;;;-0.88;100.00;100570.94;5249791;28;20964;-65
2022/04/01 07:14:48;;;;;;;12.70;7.45;;;;;;;-0.90;100.00;100583.25;5244110;28;20427;-65
2022/04/01 07:17:19;;;;;;;10.93;7.22;;;;;;;-0.89;100.00;100577.13;5248814;28;20032;-65
2022/04/01 07:19:50;;;;;;;11.02;6.97;;;;;;;-0.90;100.00;100586.75;5248497;28;20419;-65
2022/04/01 07:22:22;;;;;;;16.05;7.53;;;;;;;-0.86;100.00;100582.25;5253847;28;20017;-65
2022/04/01 07:24:53;;;;;;;13.27;7.18;;;;;;;-0.89;100.00;100585.81;5254456;28;20410;-65
2022/04/01 07:27:24;;;;;;;10.85;7.43;;;;;;;-0.83;100.00;100590.84;5248214;28;20539;-65
2022/04/01 07:29:55;;;;;;;10.45;7.22;;;;;;;-0.84;100.00;100594.38;5246342;28;20090;-65
2022/04/01 07:32:32;;;;;;;13.02;6.82;;;;;;;-0.86;100.00;100598.81;5242401;28;20144;-66
2022/04/01 07:35:08;;;;;;;12.70;7.60;;;;;;;-0.81;100.00;100604.75;5239340;28;20627;-65
2022/04/01 07:37:42;;;;;;;14.15;7.40;;;;;;;-0.83;100.00;100603.94;5241804;28;20026;-65
2022/04/01 07:40:13;;;;;;;9.93;6.65;;;;;;;-0.82;100.00;100617.91;5240880;28;20120;-65
2022/04/01 07:42:46;;;;;;;10.82;6.72;;;;;;;-0.86;100.00;100608.47;5240054;28;20025;-65
2022/04/01 07:45:18;;;;;;;11.05;7.00;;;;;;;-0.86;100.00;100611.91;5239509;28;20029;-65
2022/04/01 07:47:51;;;;;;;11.50;6.85;;;;;;;-0.81;100.00;100628.31;5240436;28;20021;-65
2022/04/01 07:50:22;;;;;;;11.77;6.60;;;;;;;-0.82;100.00;100631.00;5274405;28;20539;-65
2022/04/01 07:52:54;;;;;;;10.23;6.07;;;;;;;-0.83;100.00;100624.91;5248345;28;20035;-66
2022/04/01 07:55:25;;;;;;;9.63;6.32;;;;;;;-0.83;100.00;100629.28;5247903;28;20085;-65
2022/04/01 07:57:57;;;;;;;12.23;5.80;;;;;;;-0.87;100.00;100620.66;5248872;28;20040;-65
2022/04/01 08:00:28;;;;;;;10.23;5.65;;;;;;;-0.82;100.00;100631.00;5247220;28;20032;-65
2022/04/01 08:02:59;;;;;;;10.13;6.43;;;;;;;-0.81;100.00;100628.31;5251899;28;20032;-66
2022/04/01 08:05:31;;;;;;;11.38;5.95;;;;;;;-0.80;100.00;100639.69;5247209;28;20570;-66
2022/04/01 08:08:02;;;;;;;8.80;5.63;;;;;;;-0.82;100.00;100646.72;5247486;28;20032;-66
2022/04/01 08:10:33;;;;;;;9.05;6.30;;;;;;;-0.80;100.00;100642.28;5247749;28;20028;-66
2022/04/01 08:13:05;;;;;;;11.43;6.30;;;;;;;-0.80;100.00;100650.16;5253669;28;20041;-66
2022/04/01 08:15:36;;;;;;;8.68;5.68;;;;;;;-0.81;100.00;100649.28;5249117;28;20521;-66
2022/04/01 08:18:07;;;;;;;10.77;6.03;;;;;;;-0.81;100.00;100658.91;5256193;28;20036;-66
2022/04/01 08:20:39;;;;;;;9.13;5.78;;;;;;;-0.82;100.00;100663.28;5243984;28;20068;-66
2022/04/01 08:23:11;;;;;;;11.45;6.05;;;;;;;-0.82;100.00;100660.69;5248893;28;20368;-66
2022/04/01 08:25:42;;;;;;;11.05;5.90;;;;;;;-0.81;100.00;100672.00;5256412;28;20368;-66
2022/04/01 08:28:14;;;;;;;11.75;6.20;;;;;;;-0.77;100.00;100672.75;5254429;28;20048;-66
2022/04/01 08:30:45;;;;;;;10.23;6.38;;;;;;;-0.69;100.00;100681.22;5249869;28;20068;-66
2022/04/01 08:33:20;;;;;;;11.50;6.15;;;;;;;-0.67;100.00;100666.31;5248730;28;20036;-66
2022/04/01 08:35:51;;;;;;;;;;;;;;;-0.68;100.00;100689.03;5256239;28;20064;-66
2022/04/01 08:38:23;;;;;;;8.13;5.63;;;;;;;-0.69;100.00;100695.19;5250970;28;20031;-66
2022/04/01 08:40:54;;;;;;;12.68;6.80;;;;;;;-0.72;100.00;100695.28;5243456;28;20029;-66
2022/04/01 08:43:31;;;;;;;9.23;5.85;;;;;;;-0.72;100.00;100700.53;5246944;28;20045;-66
2022/04/01 08:46:08;;;;;;;8.25;4.95;;;;;;;-0.71;100.00;100706.63;5242292;28;20400;-66
2022/04/01 08:48:39;;;;;;;10.57;5.88;;;;;;;-0.71;100.00;100710.13;5246544;28;20029;-66
2022/04/01 08:51:10;;;;;;;9.13;4.57;;;;;;;-0.71;100.00;100715.34;5243308;28;20036;-66
2022/04/01 08:53:44;;;;;;;9.82;4.65;;;;;;;-0.67;100.00;100727.44;5246658;28;20086;-66
2022/04/01 08:56:19;;;;;;;8.75;4.53;;;;;;;-0.66;100.00;100720.44;5241509;28;20034;-66
2022/04/01 08:58:50;;;;;;;8.43;4.43;;;;;;;-0.68;100.00;100723.09;5239083;28;20037;-66
2022/04/01 09:01:22;;;;;;;7.68;4.45;;;;;;;-0.65;100.00;100724.78;5246013;28;20028;-66
2022/04/01 09:03:56;;;;;;;7.75;4.13;;;;;;;-0.63;100.00;100731.69;5246018;28;20032;-66
2022/04/01 09:06:27;;;;;;;5.70;3.23;;;;;;;-0.62;100.00;100733.38;5251887;28;20593;-66
2022/04/01 09:08:59;;;;;;;7.72;4.35;;;;;;;-0.60;100.00;100742.03;5253085;28;20383;-66
2022/04/01 09:11:30;;;;;;;8.27;4.60;;;;;;;-0.52;100.00;100746.19;5253287;28;20552;-66
2022/04/01 09:14:02;;;;;;;8.43;4.32;;;;;;;-0.53;100.00;100744.50;5252605;28;20029;-66
2022/04/01 09:16:39;;;;;;;7.78;4.22;;;;;;;-0.53;100.00;100747.97;5249749;28;20060;-66
2022/04/01 09:19:10;;;;;;;8.85;4.55;;;;;;;-0.45;100.00;100751.19;5249062;28;20033;-66
2022/04/01 09:21:44;;;;;;;7.47;4.45;;;;;;;-0.42;100.00;100753.72;5248256;28;20033;-66
2022/04/01 09:24:15;;;;;;;10.27;4.50;;;;;;;-0.39;100.00;100752.75;5248726;28;20036;-66
2022/04/01 09:26:55;;;;;;;8.45;4.13;;;;;;;-0.40;100.00;100761.53;5246162;28;20057;-66
2022/04/01 09:29:31;;;;;;;8.35;4.40;;;;;;;-0.31;100.00;100765.59;5248227;28;20029;-66
2022/04/01 09:32:06;;;;;;;9.90;4.13;;;;;;;-0.34;100.00;100768.34;5248461;28;20379;-66
2022/04/01 09:34:40;;;;;;;7.95;4.43;;;;;;;-0.32;100.00;100761.28;5249666;28;20556;-66
2022/04/01 09:37:11;;;;;;;8.05;4.50;;;;;;;-0.26;100.00;100772.41;5248558;28;20024;-66
2022/04/01 09:39:43;;;;;;;8.27;4.43;;;;;;;-0.23;100.00;100772.31;5249241;28;20032;-66
2022/04/01 09:42:19;;;;;;;7.22;4.00;;;;;;;-0.22;100.00;100775.78;5243788;28;20028;-67
2022/04/01 09:44:57;;;;;;;8.52;3.88;;;;;;;-0.21;100.00;100772.28;5254779;28;20025;-66
2022/04/01 09:47:35;;;;;;;6.18;3.55;;;;;;;-0.19;100.00;100767.84;5250288;28;20030;-67
2022/04/01 09:50:13;;;;;;;6.13;3.20;;;;;;;-0.19;100.00;100780.94;5242547;28;20536;-67
2022/04/01 09:52:46;;;;;;;6.53;3.30;;;;;;;-0.15;100.00;100773.81;5249440;28;20033;-67
2022/04/01 09:55:18;;;;;;;6.50;3.10;;;;;;;-0.17;100.00;100775.63;5237020;28;20067;-67
2022/04/01 09:57:49;;;;;;;5.82;3.13;;;;;;;-0.17;100.00;100775.63;5250039;28;20477;-67
2022/04/01 10:00:21;;;;;;;6.18;3.17;;;;;;;-0.15;100.00;100776.44;5248572;28;20029;-67
2022/04/01 10:02:52;;;;;;;7.03;3.63;;;;;;;-0.11;100.00;100780.69;5247828;28;20079;-67
2022/04/01 10:05:23;;;;;;;6.85;3.05;;;;;;;-0.13;100.00;100780.72;5244321;28;20057;-67
2022/04/01 10:08:00;;;;;;;6.40;3.05;;;;;;;-0.18;100.00;100782.63;5243572;28;20259;-67
2022/04/01 10:10:32;;;;;;;5.65;2.83;;;;;;;-0.18;100.00;100777.41;5242258;28;20024;-66
2022/04/01 10:13:17;;;;;;;6.10;2.40;;;;;;;-0.20;100.00;100785.31;5239656;28;20048;-67
2022/04/01 10:15:49;;;;;;;6.10;2.80;;;;;;;-0.16;100.00;100780.81;5242006;28;20108;-66
2022/04/01 10:18:22;;;;;;;5.63;3.05;;;;;;;-0.09;100.00;100784.13;5244336;28;20040;-66
2022/04/01 10:20:54;;;;;;;5.45;2.90;;;;;;;-0.12;100.00;100792.91;5243665;28;20033;-66
2022/04/01 10:23:26;;;;;;;4.80;2.70;;;;;;;-0.08;100.00;100789.28;5274628;28;21848;-67
2022/04/01 10:26:05;;;;;;;5.22;2.78;;;;;;;-0.09;100.00;100795.47;5242145;28;20387;-66
2022/04/01 10:28:36;;;;;;;7.60;2.78;;;;;;;-0.13;100.00;100788.59;5243226;28;20053;-66
2022/04/01 10:31:13;;;;;;;5.53;3.05;;;;;;;-0.11;100.00;100789.41;5241790;28;20139;-66
2022/04/01 10:33:45;;;;;;;6.70;3.22;;;;;;;-0.05;100.00;100785.72;5242958;28;20033;-66
2022/04/01 10:36:26;;;;;;;7.35;3.17;;;;;;;0.06;100.00;100786.22;5247940;28;20082;-66
2022/04/01 10:39:07;;;;;;;6.28;2.63;;;;;;;0.01;100.00;100788.13;5241599;28;20033;-66
2022/04/01 10:41:38;;;;;;;5.28;3.08;;;;;;;0.09;100.00;100791.34;5240605;28;20037;-67
2022/04/01 10:44:09;;;;;;;6.82;3.20;;;;;;;0.13;100.00;100785.09;5242081;28;20090;-66
2022/04/01 10:46:56;;;;;;;7.25;3.33;;;;;;;0.13;100.00;100797.34;5242801;28;20120;-66
2022/04/01 10:52:25;;;;;;;7.32;3.30;;;;;;;0.13;100.00;100800.81;5248587;28;20033;-66
2022/04/01 10:55:02;;;;;;;6.93;4.10;;;;;;;0.16;100.00;100794.63;5252112;28;20038;-66
2022/04/01 10:57:40;;;;;;;7.32;3.90;;;;;;;0.14;100.00;100807.81;5245545;28;20119;-66
2022/04/01 11:00:15;;;;;;;7.32;3.85;;;;;;;0.17;100.00;100807.72;5244265;28;20028;-66
2022/04/01 11:02:46;;;;;;;;;;;;;;;0.15;100.00;100803.41;5252070;28;20390;-66
2022/04/01 11:05:25;;;;;;;7.10;3.85;;;;;;;0.21;100.00;100813.69;5251900;28;19923;-66
2022/04/01 11:08:20;;;;;;;6.75;4.40;;;;;;;0.29;100.00;100822.16;5247631;28;20677;-66
2022/04/01 11:11:12;;;;;;;9.27;4.17;;;;;;;0.29;100.00;100824.78;5252428;28;20071;-66
2022/04/01 11:14:02;;;;;;;7.13;4.47;;;;;;;0.27;100.00;100823.09;5247101;28;20028;-66
2022/04/01 11:16:48;;;;;;;7.05;4.50;;;;;;;0.26;100.00;100818.78;5243552;28;20098;-66
2022/04/01 11:19:22;;;;;;;7.95;4.70;;;;;;;0.29;100.00;100819.53;5247817;28;20052;-66
2022/04/01 11:21:54;;;;;;;7.50;4.80;;;;;;;0.29;100.00;100821.28;5244290;28;20060;-66
2022/04/01 11:24:31;;;;;;;9.55;4.80;;;;;;;0.31;100.00;100825.59;5248336;28;20116;-66
2022/04/01 11:27:23;;;;;;;9.43;5.60;;;;;;;0.31;100.00;100828.22;5238276;28;20033;-66
2022/04/01 11:30:14;;;;;;;8.25;5.30;;;;;;;0.33;100.00;100833.41;5239853;28;20119;-66
2022/04/01 11:32:48;;;;;;;10.02;5.13;;;;;;;0.38;100.00;100828.84;5242875;28;20033;-66
2022/04/01 11:35:25;;;;;;;7.78;5.28;;;;;;;0.39;100.00;100827.97;5244404;28;20430;-66
2022/04/01 11:37:58;;;;;;;8.57;5.00;;;;;;;0.40;100.00;100840.16;5254236;28;20056;-66
2022/04/01 11:40:31;;;;;;;8.77;5.20;;;;;;;0.37;100.00;100835.88;5245179;28;20115;-66
2022/04/01 11:43:08;;;;;;;9.30;5.15;;;;;;;0.39;100.00;100835.84;5247826;28;20036;-67
2022/04/01 11:45:40;;;;;;;9.10;5.35;;;;;;;0.43;100.00;100826.09;5252900;28;20032;-66
2022/04/01 11:48:15;;;;;;;8.23;5.40;;;;;;;0.47;100.00;100831.16;5253521;28;20040;-67
2022/04/01 11:50:51;;;;;;;7.47;5.10;;;;;;;0.48;100.00;100832.88;5255757;28;20037;-66